createdAt,value
2014-07-02T05:19:24.409Z,151
2014-07-02T05:19:42.003Z,151
2014-07-02T05:19:59.604Z,151
2014-07-02T05:20:16.557Z,153
2014-07-02T13:34:32.963Z,368
2014-07-02T13:34:51.338Z,364
2014-07-02T13:35:09.575Z,548
2014-07-02T13:35:27.325Z,567
2014-07-02T13:35:44.934Z,566
2014-07-02T13:36:02.684Z,566
2014-07-02T13:36:19.669Z,566
2014-07-02T13:36:37.279Z,726
2014-07-02T13:36:55.529Z,605
2014-07-02T13:37:12.499Z,641
2014-07-02T13:37:30.124Z,576
2014-07-02T13:37:48.499Z,773
2014-07-02T13:38:06.111Z,773
2014-07-02T13:38:54.689Z,593
2014-07-02T13:39:12.300Z,595
2014-07-02T13:39:29.441Z,595
2014-07-02T13:39:47.191Z,597
2014-07-02T13:40:05.566Z,598
2014-07-02T13:40:23.177Z,598
2014-07-02T13:40:40.787Z,600
2014-07-02T13:40:58.396Z,600
2014-07-02T13:41:16.023Z,599
2014-07-02T13:41:33.007Z,596
2014-07-02T13:41:49.367Z,606
2014-07-02T13:42:06.351Z,609
2014-07-02T13:42:23.963Z,611
2014-07-02T13:42:41.572Z,614
2014-07-02T13:42:58.556Z,615
2014-07-02T13:43:14.918Z,615
2014-07-02T13:43:31.277Z,614
2014-07-02T13:43:48.886Z,615
2014-07-02T13:44:06.511Z,614
2014-07-02T13:44:24.748Z,611
2014-07-02T13:44:42.357Z,614
2014-07-02T13:44:59.982Z,594
2014-07-02T13:45:17.734Z,594
2014-07-02T13:45:35.344Z,595
2014-07-02T13:45:52.953Z,606
2014-07-02T13:46:10.078Z,602
2014-07-02T13:46:28.455Z,596
2014-07-02T13:46:45.580Z,591
2014-07-02T13:47:02.564Z,584
2014-07-02T13:47:20.176Z,577
2014-07-02T13:47:38.551Z,575
2014-07-02T13:47:55.519Z,576
2014-07-02T13:48:13.144Z,574
2014-07-02T13:48:31.381Z,570
2014-07-02T13:48:49.006Z,565
2014-07-02T13:49:07.256Z,561
2014-07-02T13:49:24.382Z,560
2014-07-02T13:49:41.991Z,562
2014-07-02T13:50:00.226Z,564
2014-07-02T13:50:18.632Z,555
2014-07-02T13:50:36.243Z,560
2014-07-02T13:50:53.868Z,582
2014-07-02T13:51:11.478Z,589
2014-07-02T13:51:28.606Z,593
2014-07-02T13:51:45.731Z,596
2014-07-02T13:52:02.715Z,600
2014-07-02T13:52:20.341Z,603
2014-07-02T13:52:37.935Z,602
2014-07-02T13:52:54.919Z,603
2014-07-02T13:53:13.169Z,607
2014-07-02T13:54:22.124Z,625
2014-07-02T13:54:39.736Z,629
2014-07-02T13:54:56.720Z,630
2014-07-02T13:55:14.345Z,637
2014-07-02T13:55:30.706Z,643
2014-07-02T13:55:48.941Z,645
2014-07-02T13:56:06.691Z,639
2014-07-02T13:56:24.316Z,630
2014-07-02T13:56:42.552Z,649
2014-07-02T13:56:59.536Z,649
2014-07-02T13:57:17.161Z,649
2014-07-02T13:57:34.773Z,650
2014-07-02T13:57:51.773Z,646
2014-07-02T13:58:08.757Z,648
2014-07-02T13:58:26.509Z,646
2014-07-02T13:58:44.119Z,648
2014-07-02T13:59:02.462Z,638
2014-07-02T13:59:20.619Z,640
2014-07-02T13:59:37.605Z,648
2014-07-02T13:59:58.011Z,650
2014-07-02T14:00:15.496Z,648
2014-07-02T14:00:33.107Z,650
2014-07-02T14:00:51.357Z,649
2014-07-02T14:01:09.607Z,652
2014-07-02T14:01:27.359Z,652
2014-07-02T14:01:45.750Z,651
2014-07-02T14:02:03.359Z,651
2014-07-02T14:02:21.609Z,651
2014-07-02T14:02:39.236Z,650
2014-07-02T14:02:57.470Z,639
2014-07-02T14:03:15.720Z,635
2014-07-02T14:03:33.972Z,648
2014-07-02T14:03:51.488Z,636
2014-07-02T14:04:09.238Z,634
2014-07-02T14:04:26.863Z,643
2014-07-02T14:04:43.849Z,625
2014-07-02T14:05:02.084Z,623
2014-07-02T14:05:19.709Z,624
2014-07-02T14:05:37.320Z,622
2014-07-02T14:05:54.929Z,623
2014-07-02T14:06:13.179Z,637
2014-07-02T14:06:31.431Z,619
2014-07-02T14:06:49.166Z,616
2014-07-02T14:07:06.150Z,614
2014-07-02T14:07:23.900Z,612
2014-07-02T14:07:42.277Z,612
2014-07-02T14:07:59.902Z,614
2014-07-02T14:08:17.512Z,614
2014-07-02T14:08:34.498Z,614
2014-07-02T14:08:52.123Z,614
2014-07-02T14:09:09.092Z,615
2014-07-02T14:09:25.467Z,611
2014-07-02T14:09:43.218Z,608
2014-07-02T14:10:00.843Z,605
2014-07-02T14:10:19.218Z,604
2014-07-02T14:10:36.829Z,601
2014-07-02T14:10:55.079Z,599
2014-07-02T14:11:12.688Z,597
2014-07-02T14:11:30.938Z,595
2014-07-02T14:11:49.316Z,597
2014-07-02T14:12:06.941Z,593
2014-07-02T14:12:24.551Z,592
2014-07-02T14:12:42.162Z,590
2014-07-02T14:12:59.147Z,589
2014-07-02T14:13:16.131Z,587
2014-07-02T14:13:34.365Z,586
2014-07-02T14:13:51.429Z,587
2014-07-02T14:14:09.038Z,587
2014-07-02T14:14:26.023Z,589
2014-07-02T14:14:43.651Z,591
2014-07-02T14:15:01.885Z,593
2014-07-02T14:15:18.244Z,596
2014-07-02T14:15:35.869Z,598
2014-07-02T14:15:53.480Z,598
2014-07-02T14:16:11.339Z,597
2014-07-02T14:16:29.073Z,596
2014-07-02T14:16:46.075Z,598
2014-07-02T14:17:04.450Z,598
2014-07-02T14:17:22.060Z,598
2014-07-02T14:17:39.669Z,598
2014-07-02T14:17:57.422Z,596
2014-07-02T14:18:15.032Z,596
2014-07-02T14:18:31.391Z,595
2014-07-02T14:18:48.393Z,591
2014-07-02T14:19:06.627Z,586
2014-07-02T14:19:23.612Z,577
2014-07-02T14:19:41.987Z,579
2014-07-02T14:19:59.754Z,573
2014-07-02T14:20:17.364Z,567
2014-07-02T14:20:34.973Z,560
2014-07-02T14:20:52.583Z,552
2014-07-02T14:21:09.708Z,543
2014-07-02T14:21:26.693Z,535
2014-07-02T14:21:44.318Z,527
2014-07-02T14:22:02.554Z,518
2014-07-02T14:22:19.054Z,509
2014-07-02T14:22:37.289Z,500
2014-07-02T14:22:54.900Z,495
2014-07-02T14:23:12.025Z,495
2014-07-02T14:23:30.400Z,498
2014-07-02T14:23:48.791Z,506
2014-07-02T14:24:05.824Z,513
2014-07-02T14:24:24.199Z,517
2014-07-02T14:24:41.949Z,522
2014-07-02T14:24:59.701Z,525
2014-07-02T14:25:17.951Z,527
2014-07-02T14:25:35.560Z,527
2014-07-02T14:25:52.562Z,530
2014-07-02T14:26:10.781Z,532
2014-07-02T14:26:28.406Z,532
2014-07-02T14:26:44.765Z,531
2014-07-02T14:27:02.377Z,531
2014-07-02T14:27:20.752Z,536
2014-07-02T14:27:39.002Z,545
2014-07-02T14:27:55.363Z,565
2014-07-02T14:28:12.988Z,572
2014-07-02T14:28:31.222Z,563
2014-07-02T14:28:49.613Z,560
2014-07-02T14:29:07.848Z,550
2014-07-02T14:29:27.036Z,535
2014-07-02T14:29:44.083Z,524
2014-07-02T14:30:01.069Z,517
2014-07-02T14:30:18.694Z,513
2014-07-02T14:30:36.929Z,510
2014-07-02T14:30:55.181Z,504
2014-07-02T14:31:12.790Z,498
2014-07-02T14:31:30.415Z,487
2014-07-02T14:31:48.024Z,477
2014-07-02T14:32:06.402Z,471
2014-07-02T14:32:24.652Z,471
2014-07-02T14:32:42.262Z,473
2014-07-02T14:32:59.248Z,470
2014-07-02T14:33:16.857Z,469
2014-07-02T14:33:35.107Z,471
2014-07-02T14:33:52.858Z,470
2014-07-02T14:34:10.483Z,466
2014-07-02T14:34:28.218Z,472
2014-07-02T14:34:45.343Z,458
2014-07-02T14:35:03.595Z,457
2014-07-02T14:35:20.564Z,458
2014-07-02T14:35:39.314Z,460
2014-07-02T14:35:57.691Z,463
2014-07-02T14:36:16.066Z,469
2014-07-02T14:36:33.675Z,479
2014-07-02T14:36:50.659Z,493
2014-07-02T14:37:08.411Z,505
2014-07-02T14:37:26.036Z,513
2014-07-02T14:37:43.786Z,520
2014-07-02T14:38:01.538Z,524
2014-07-02T14:38:19.148Z,528
2014-07-02T14:38:36.757Z,533
2014-07-02T14:38:53.759Z,542
2014-07-02T14:39:11.993Z,552
2014-07-02T14:39:29.743Z,559
2014-07-02T14:39:46.728Z,563
2014-07-02T14:40:05.105Z,563
2014-07-02T14:40:23.339Z,564
2014-07-02T14:40:41.589Z,563
2014-07-02T14:40:59.857Z,564
2014-07-02T14:41:16.841Z,563
2014-07-02T14:41:34.591Z,562
2014-07-02T14:41:52.201Z,563
2014-07-02T14:42:09.811Z,565
2014-07-02T14:42:27.420Z,568
2014-07-02T14:42:45.670Z,573
2014-07-02T14:43:02.782Z,579
2014-07-02T14:43:21.032Z,587
2014-07-02T14:43:38.016Z,597
2014-07-02T14:43:55.768Z,607
2014-07-02T14:44:12.752Z,671
2014-07-02T14:44:30.362Z,619
2014-07-02T14:44:47.362Z,621
2014-07-02T14:45:05.739Z,592
2014-07-02T14:45:23.348Z,592
2014-07-02T14:45:40.973Z,594
2014-07-02T14:45:59.210Z,599
2014-07-02T14:46:16.210Z,605
2014-07-02T14:46:33.819Z,612
2014-07-02T14:46:52.085Z,623
2014-07-02T14:47:10.337Z,620
2014-07-02T14:47:28.587Z,599
2014-07-02T14:47:46.962Z,587
2014-07-02T14:48:04.589Z,572
2014-07-02T14:48:22.964Z,568
2014-07-02T14:48:40.714Z,637
2014-07-02T14:48:58.966Z,555
2014-07-02T14:49:17.216Z,539
2014-07-02T14:49:34.825Z,531
2014-07-02T14:49:53.200Z,527
2014-07-02T14:50:10.811Z,521
2014-07-02T14:50:29.186Z,516
2014-07-02T14:50:46.936Z,512
2014-07-02T14:51:04.563Z,511
2014-07-02T14:51:22.173Z,511
2014-07-02T14:51:39.298Z,510
2014-07-02T14:51:57.050Z,508
2014-07-02T14:52:15.425Z,508
2014-07-02T14:52:33.050Z,509
2014-07-02T14:52:51.284Z,511
2014-07-02T14:53:08.911Z,513
2014-07-02T14:53:26.520Z,512
2014-07-02T14:53:44.145Z,513
2014-07-02T14:54:01.897Z,512
2014-07-02T14:54:18.257Z,511
2014-07-02T14:54:34.616Z,511
2014-07-02T14:54:52.851Z,513
2014-07-02T14:55:11.243Z,517
2014-07-02T14:55:28.993Z,520
2014-07-02T14:55:47.228Z,524
2014-07-02T14:56:04.980Z,525
2014-07-02T14:56:23.214Z,526
2014-07-02T14:56:41.448Z,529
2014-07-02T14:56:59.198Z,534
2014-07-02T14:57:16.185Z,540
2014-07-02T14:57:33.810Z,545
2014-07-02T14:57:50.794Z,547
2014-07-02T14:58:08.405Z,546
2014-07-02T14:58:24.780Z,547
2014-07-02T14:58:42.530Z,547
2014-07-02T14:58:59.499Z,548
2014-07-02T14:59:17.125Z,546
2014-07-02T14:59:35.360Z,545
2014-07-02T14:59:52.344Z,542
2014-07-02T15:00:09.331Z,542
2014-07-02T15:00:26.441Z,544
2014-07-02T15:00:43.425Z,548
2014-07-02T15:01:00.552Z,555
2014-07-02T15:01:18.177Z,557
2014-07-02T15:01:36.552Z,556
2014-07-02T15:01:53.677Z,554
2014-07-02T15:02:11.287Z,552
2014-07-02T15:02:29.662Z,552
2014-07-02T15:02:47.272Z,554
2014-07-02T15:03:04.274Z,556
2014-07-02T15:03:21.883Z,556
2014-07-02T15:03:40.133Z,554
2014-07-02T15:03:58.368Z,550
2014-07-02T15:04:15.979Z,547
2014-07-02T15:04:32.979Z,544
2014-07-02T15:04:50.588Z,540
2014-07-02T15:05:08.215Z,534
2014-07-02T15:05:25.965Z,527
2014-07-02T15:05:43.575Z,520
2014-07-02T15:06:01.200Z,515
2014-07-02T15:06:19.577Z,510
2014-07-02T15:06:37.186Z,508
2014-07-02T15:06:55.436Z,509
2014-07-02T15:07:13.188Z,507
2014-07-02T15:07:31.422Z,504
2014-07-02T15:07:48.547Z,501
2014-07-02T15:08:06.158Z,497
2014-07-02T15:08:24.408Z,495
2014-07-02T15:08:42.017Z,495
2014-07-02T15:08:58.377Z,495
2014-07-02T15:09:14.739Z,494
2014-07-02T15:09:32.364Z,493
2014-07-02T15:09:50.739Z,491
2014-07-02T15:10:08.975Z,489
2014-07-02T15:10:26.600Z,486
2014-07-02T15:10:44.210Z,499
2014-07-02T15:11:01.835Z,517
2014-07-02T15:11:19.445Z,504
2014-07-02T15:11:37.679Z,498
2014-07-02T15:11:55.304Z,496
2014-07-02T15:12:12.917Z,502
2014-07-02T15:12:31.151Z,507
2014-07-02T15:12:48.901Z,509
2014-07-02T15:13:06.527Z,534
2014-07-02T15:13:24.262Z,505
2014-07-02T15:13:41.887Z,499
2014-07-02T15:14:00.137Z,495
2014-07-02T15:14:17.748Z,499
2014-07-02T15:14:34.107Z,505
2014-07-02T15:14:51.842Z,504
2014-07-02T15:15:10.094Z,505
2014-07-02T15:15:28.453Z,512
2014-07-02T15:16:06.752Z,525
2014-07-02T15:16:23.877Z,524
2014-07-02T15:16:41.611Z,518
2014-07-02T15:16:59.361Z,515
2014-07-02T15:17:16.348Z,514
2014-07-02T15:17:33.957Z,510
2014-07-02T15:17:51.566Z,507
2014-07-02T15:18:09.193Z,506
2014-07-02T15:18:27.443Z,507
2014-07-02T15:18:45.053Z,508
2014-07-02T15:19:02.662Z,512
2014-07-02T15:19:19.649Z,516
2014-07-02T15:19:36.774Z,522
2014-07-02T15:19:55.149Z,526
2014-07-02T15:20:12.135Z,526
2014-07-02T15:20:29.744Z,524
2014-07-02T15:20:46.729Z,520
2014-07-02T15:21:04.354Z,519
2014-07-02T15:21:21.965Z,522
2014-07-02T15:21:40.340Z,523
2014-07-02T15:21:57.965Z,523
2014-07-02T15:22:15.576Z,525
2014-07-02T15:22:33.186Z,524
2014-07-02T15:22:50.795Z,525
2014-07-02T15:23:08.421Z,528
2014-07-02T15:23:25.546Z,534
2014-07-02T15:23:43.781Z,537
2014-07-02T15:24:00.140Z,539
2014-07-02T15:24:17.909Z,541
2014-07-02T15:24:35.502Z,545
2014-07-02T15:24:52.487Z,549
2014-07-02T15:25:10.114Z,566
2014-07-02T15:25:27.098Z,556
2014-07-02T15:25:44.207Z,568
2014-07-02T15:26:01.817Z,606
2014-07-02T15:26:18.819Z,668
2014-07-02T15:26:36.569Z,772
2014-07-02T15:26:53.553Z,773
2014-07-02T15:27:11.930Z,774
2014-07-02T15:27:29.555Z,775
2014-07-02T15:27:47.790Z,775
2014-07-02T15:28:06.040Z,776
2014-07-02T15:28:23.650Z,776
2014-07-02T15:28:41.400Z,777
2014-07-02T15:28:59.634Z,777
2014-07-02T15:29:17.261Z,777
2014-07-02T15:29:34.871Z,777
2014-07-02T15:29:53.136Z,777
2014-07-02T15:30:11.374Z,778
2014-07-02T15:30:27.749Z,778
2014-07-02T15:30:45.358Z,778
2014-07-02T15:31:02.967Z,778
2014-07-02T15:31:21.218Z,778
2014-07-02T15:31:39.453Z,778
2014-07-02T15:31:57.703Z,778
2014-07-02T15:32:15.314Z,779
2014-07-02T15:32:33.064Z,779
2014-07-02T15:32:51.299Z,779
2014-07-02T15:33:09.551Z,779
2014-07-02T15:33:27.160Z,779
2014-07-02T15:33:44.910Z,779
2014-07-02T15:34:02.035Z,779
2014-07-02T15:34:19.646Z,779
2014-07-02T15:34:36.146Z,779
2014-07-02T15:34:52.506Z,779
2014-07-02T15:35:09.492Z,779
2014-07-02T15:35:27.117Z,779
2014-07-02T15:35:44.726Z,779
2014-07-02T15:36:02.351Z,779
2014-07-02T15:36:20.587Z,779
2014-07-02T15:36:38.962Z,735
2014-07-02T15:36:56.087Z,777
2014-07-02T15:37:13.714Z,717
2014-07-02T15:37:31.948Z,703
2014-07-02T15:37:50.198Z,687
2014-07-02T15:38:07.808Z,702
2014-07-02T15:38:25.420Z,760
2014-07-02T15:38:43.654Z,678
2014-07-02T15:39:01.904Z,671
2014-07-02T15:39:20.156Z,698
2014-07-02T15:39:37.766Z,725
2014-07-02T15:39:55.391Z,775
2014-07-02T15:40:13.002Z,775
2014-07-02T15:40:30.627Z,775
2014-07-02T15:40:47.768Z,669
2014-07-02T15:41:06.002Z,637
2014-07-02T15:41:24.238Z,623
2014-07-02T15:41:41.863Z,632
2014-07-02T15:42:00.098Z,662
2014-07-02T15:42:18.350Z,723
2014-07-02T15:42:36.584Z,758
2014-07-02T15:42:52.959Z,774
2014-07-02T15:43:09.946Z,775
2014-07-02T15:43:27.571Z,775
2014-07-02T15:43:45.805Z,776
2014-07-02T15:44:02.805Z,776
2014-07-02T15:44:20.853Z,777
2014-07-02T15:44:39.103Z,777
2014-07-02T15:44:56.712Z,777
2014-07-02T15:45:14.949Z,777
2014-07-02T15:45:32.714Z,778
2014-07-02T15:45:51.089Z,778
2014-07-02T15:46:09.324Z,778
2014-07-02T15:46:27.076Z,778
2014-07-02T15:46:45.310Z,778
2014-07-02T15:47:03.701Z,778
2014-07-02T15:47:21.312Z,778
2014-07-02T15:47:39.687Z,778
2014-07-02T15:47:56.031Z,778
2014-07-02T15:48:13.658Z,778
2014-07-02T15:48:31.267Z,742
2014-07-02T15:48:48.892Z,560
2014-07-02T15:49:06.486Z,544
2014-07-02T15:49:22.988Z,532
2014-07-02T15:49:40.613Z,523
2014-07-02T15:49:57.597Z,520
2014-07-02T15:50:14.723Z,517
2014-07-02T15:50:31.098Z,510
2014-07-02T15:50:47.458Z,505
2014-07-02T15:51:05.692Z,497
2014-07-02T15:51:23.319Z,491
2014-07-02T15:51:40.928Z,488
2014-07-02T15:51:59.178Z,489
2014-07-02T15:52:16.165Z,493
2014-07-02T15:52:32.524Z,498
2014-07-02T15:52:50.133Z,500
2014-07-02T15:53:07.133Z,502
2014-07-02T15:53:25.385Z,507
2014-07-02T15:53:43.135Z,513
2014-07-02T15:54:00.745Z,518
2014-07-02T15:54:18.372Z,526
2014-07-02T15:54:35.356Z,531
2014-07-02T15:54:53.091Z,530
2014-07-02T15:55:10.075Z,526
2014-07-02T15:55:27.702Z,521
2014-07-02T15:55:45.936Z,512
2014-07-02T15:56:04.171Z,506
2014-07-02T15:56:22.423Z,502
2014-07-02T15:56:40.048Z,498
2014-07-02T15:56:57.641Z,493
2014-07-02T15:57:15.893Z,491
2014-07-02T15:57:34.268Z,494
2014-07-02T15:57:51.878Z,495
2014-07-02T15:58:10.128Z,496
2014-07-02T15:58:27.880Z,500
2014-07-02T15:58:45.645Z,501
2014-07-02T15:59:03.380Z,499
2014-07-02T15:59:21.132Z,497
2014-07-02T15:59:38.757Z,495
2014-07-02T15:59:56.991Z,496
2014-07-02T16:00:15.368Z,499
2014-07-02T16:00:33.618Z,496
2014-07-02T16:00:51.853Z,489
2014-07-02T16:01:10.103Z,484
2014-07-02T16:01:27.073Z,482
2014-07-02T16:01:44.073Z,485
2014-07-02T16:02:02.448Z,488
2014-07-02T16:02:20.685Z,487
2014-07-02T16:02:39.075Z,479
2014-07-02T16:02:56.825Z,478
2014-07-02T16:03:14.437Z,484
2014-07-02T16:03:30.796Z,487
2014-07-02T16:03:48.421Z,484
2014-07-02T16:04:06.796Z,481
2014-07-02T16:04:23.782Z,480
2014-07-02T16:04:41.392Z,486
2014-07-02T16:04:59.001Z,497
2014-07-02T16:05:16.628Z,507
2014-07-02T16:05:34.238Z,514
2014-07-02T16:05:52.488Z,520
2014-07-02T16:06:09.597Z,529
2014-07-02T16:06:25.958Z,541
2014-07-02T16:06:42.943Z,550
2014-07-02T16:06:59.927Z,562
2014-07-02T16:07:18.179Z,566
2014-07-02T16:07:35.929Z,577
2014-07-02T16:07:53.538Z,584
2014-07-02T16:08:11.163Z,638
2014-07-02T16:08:59.852Z,697
2014-07-02T16:09:17.479Z,698
2014-07-02T16:09:35.213Z,693
2014-07-02T16:09:52.838Z,637
2014-07-02T16:10:11.198Z,689
2014-07-02T16:10:29.450Z,695
2014-07-02T16:10:47.700Z,696
2014-07-02T16:11:04.825Z,695
2014-07-02T16:11:21.170Z,680
2014-07-02T16:11:38.155Z,632
2014-07-02T16:11:55.139Z,583
2014-07-02T16:12:13.389Z,595
2014-07-02T16:12:31.016Z,594
2014-07-02T16:12:49.251Z,647
2014-07-02T16:13:06.876Z,691
2014-07-02T16:13:24.487Z,581
2014-07-02T16:13:42.721Z,565
2014-07-02T16:14:00.971Z,564
2014-07-02T16:14:19.223Z,564
2014-07-02T16:14:37.489Z,565
2014-07-02T16:14:55.239Z,573
2014-07-02T16:15:12.223Z,589
2014-07-02T16:15:29.850Z,583
2014-07-02T16:15:47.460Z,592
2014-07-02T16:16:05.241Z,581
2014-07-02T16:16:23.477Z,615
2014-07-02T16:16:41.102Z,574
2014-07-02T16:16:58.087Z,568
2014-07-02T16:17:16.337Z,567
2014-07-02T16:17:33.947Z,597
2014-07-02T18:41:16.619Z,168
2014-07-02T18:41:34.212Z,170
2014-07-02T18:41:51.792Z,190
2014-07-02T18:42:10.011Z,188
2014-07-02T18:42:27.605Z,185
2014-07-02T18:42:44.558Z,184
2014-07-02T18:43:01.685Z,183
2014-07-02T18:43:19.248Z,182
2014-07-02T18:43:36.216Z,179
2014-07-02T18:43:53.796Z,177
2014-07-02T18:44:12.015Z,176
2014-07-02T18:44:28.984Z,176
2014-07-02T18:44:45.937Z,176
2014-07-02T18:45:03.533Z,176
2014-07-02T18:45:21.127Z,177
2014-07-02T18:45:39.361Z,179
2014-07-02T18:45:57.566Z,182
2014-07-02T18:46:15.785Z,176
2014-07-02T18:46:33.379Z,179
2014-07-02T18:46:50.959Z,183
2014-07-02T18:47:07.927Z,184
2014-07-02T18:47:26.146Z,184
2014-07-02T18:47:43.756Z,182
2014-07-02T18:48:00.710Z,180
2014-07-02T18:48:18.303Z,176
2014-07-02T18:48:35.882Z,173
2014-07-02T18:48:52.852Z,173
2014-07-02T18:49:09.196Z,175
2014-07-02T18:49:26.915Z,176
2014-07-02T18:49:43.868Z,176
2014-07-02T18:50:00.340Z,174
2014-07-02T18:50:17.293Z,173
2014-07-02T18:50:35.027Z,172
2014-07-02T18:50:53.231Z,171
2014-07-02T18:51:11.591Z,169
2014-07-02T18:51:28.544Z,168
2014-07-02T18:51:46.138Z,168
2014-07-02T18:52:03.734Z,168
2014-07-02T18:52:20.687Z,167
2014-07-02T18:52:38.281Z,167
2014-07-02T18:52:55.876Z,165
2014-07-02T18:53:14.095Z,163
2014-07-02T18:53:32.313Z,163
2014-07-02T18:53:50.535Z,165
2014-07-02T18:54:08.145Z,168
2014-07-02T18:54:26.348Z,166
2014-07-02T18:54:44.582Z,163
2014-07-02T18:55:01.536Z,160
2014-07-02T18:55:19.755Z,158
2014-07-02T18:55:36.099Z,155
2014-07-02T18:55:53.819Z,153
2014-07-02T18:56:11.413Z,152
2014-07-02T18:56:29.007Z,151
2014-07-02T18:56:46.601Z,151
2014-07-02T18:57:04.196Z,151
2014-07-02T18:57:21.775Z,150
2014-07-02T18:57:39.384Z,149
2014-07-02T18:57:55.714Z,148
2014-07-02T18:58:13.308Z,145
2014-07-02T18:58:30.277Z,142
2014-07-02T18:58:47.245Z,141
2014-07-02T18:59:03.575Z,140
2014-07-02T18:59:20.529Z,138
2014-07-02T18:59:36.872Z,137
2014-07-02T18:59:55.093Z,137
2014-07-02T19:00:11.437Z,137
2014-07-02T19:00:29.656Z,136
2014-07-02T19:00:47.374Z,136
2014-07-02T19:01:05.594Z,134
2014-07-02T19:01:23.188Z,133
2014-07-02T19:01:40.157Z,130
2014-07-02T19:01:57.752Z,128
2014-07-02T19:02:15.971Z,124
2014-07-02T19:02:34.190Z,121
2014-07-02T19:02:51.146Z,117
2014-07-02T19:03:08.755Z,113
2014-07-02T19:03:26.974Z,110
2014-07-02T19:03:45.208Z,107
2014-07-02T19:04:03.429Z,103
2014-07-02T19:04:21.632Z,101
2014-07-02T19:04:38.601Z,99
2014-07-02T19:04:56.822Z,96
2014-07-02T19:05:14.416Z,94
2014-07-02T19:05:32.009Z,92
2014-07-02T19:05:48.978Z,90
2014-07-02T19:06:06.573Z,87
2014-07-02T19:06:24.182Z,85
2014-07-02T19:06:41.776Z,84
2014-07-02T19:06:59.545Z,82
2014-07-02T19:07:17.748Z,80
2014-07-02T19:07:34.841Z,78
2014-07-02T19:07:51.797Z,76
2014-07-02T19:08:09.390Z,74
2014-07-02T19:08:26.984Z,73
2014-07-02T19:08:43.953Z,72
2014-07-02T19:09:02.188Z,71
2014-07-02T19:09:19.282Z,70
2014-07-02T19:09:37.001Z,70
2014-07-02T19:09:54.612Z,69
2014-07-02T19:10:12.190Z,68
2014-07-02T19:10:30.550Z,66
2014-07-02T19:10:47.518Z,65
2014-07-02T19:11:05.238Z,65
2014-07-02T19:11:22.832Z,64
2014-07-02T19:11:40.426Z,64
2014-07-02T19:12:55.384Z,64
2014-07-02T19:13:13.602Z,66
2014-07-02T19:13:30.571Z,66
2014-07-02T19:13:48.149Z,67
2014-07-02T19:14:05.745Z,68
2014-07-02T19:14:23.979Z,69
2014-07-02T19:14:41.558Z,69
2014-07-02T19:14:59.778Z,71
2014-07-02T19:15:17.997Z,72
2014-07-02T19:15:35.591Z,74
2014-07-02T19:15:53.187Z,75
2014-07-02T19:16:11.405Z,76
2014-07-02T19:16:29.140Z,77
2014-07-02T19:16:47.358Z,78
2014-07-02T19:17:04.938Z,79
2014-07-02T19:17:22.531Z,79
2014-07-02T19:17:40.750Z,78
2014-07-02T19:17:58.471Z,77
2014-07-02T19:18:16.065Z,76
2014-07-02T19:18:33.643Z,74
2014-07-02T19:18:50.612Z,73
2014-07-02T19:19:06.943Z,72
2014-07-02T19:19:23.911Z,70
2014-07-02T19:19:41.005Z,70
2014-07-02T19:19:58.101Z,69
2014-07-02T19:20:15.070Z,68
2014-07-02T19:20:32.023Z,67
2014-07-02T19:20:48.991Z,66
2014-07-02T19:21:06.587Z,64
2014-07-02T19:21:24.165Z,63
2014-07-02T19:21:41.743Z,63
2014-07-02T19:21:59.964Z,62
2014-07-02T19:22:17.699Z,61
2014-07-02T19:22:35.917Z,61
2014-07-02T19:22:53.513Z,60
2014-07-02T19:23:11.091Z,60
2014-07-02T19:23:28.685Z,59
2014-07-02T19:23:45.654Z,59
2014-07-02T19:24:03.999Z,58
2014-07-02T19:24:21.281Z,57
2014-07-02T19:24:38.859Z,57
2014-07-02T19:24:59.314Z,56
2014-07-02T19:25:16.908Z,56
2014-07-02T19:25:35.126Z,55
2014-07-02T19:25:52.863Z,54
2014-07-02T19:26:10.582Z,53
2014-07-02T19:26:58.896Z,51
2014-07-02T19:27:17.115Z,50
2014-07-02T19:27:34.709Z,49
2014-07-02T19:27:52.289Z,48
2014-07-02T19:28:10.507Z,48
2014-07-02T19:28:27.601Z,47
2014-07-02T19:28:43.929Z,46
2014-07-02T19:29:02.149Z,46
